Lake Wohlford (1030) Station Data

Red Flag Warning: No
Fire Weather Zone: 250
SDGE Region: North East
Lat/Lon: 33.178/-116.995

Observations

Time Wind Speed/Gust Temp(F) RH Fuel Moist Fuel Temp(F) Dewpt(F) Tmax(F) Tmin(F) Accum Precip 10-min Precip SL Press(mb)
2/27 11:40pm 257 8 G 14 49° 100% - - 49° 52° 41.1° - - -
2/27 11:20pm 256 3 G 4 49° 100% - - 49° 52° 41.1° - - -
2/27 11:10pm 246 3 G 5 49° 100% - - 49° 52° 41.1° - - -
2/27 11:00pm 255 6 G 8 49° 100% - - 49° 52° 41.1° - - -
2/27 10:50pm 249 6 G 8 49° 100% - - 49° 52° 41.1° - - -
2/27 10:40pm 245 5 G 9 49° 100% - - 49° 52° 41.1° - - -
2/27 10:30pm 272 4 G 7 49° 100% - - 49° 52° 41.1° - - -
2/27 10:20pm 269 4 G 6 49° 100% - - 49° 52° 41.1° - - -
2/27 10:10pm 253 4 G 6 49° 100% - - 49° 52° 41.1° - - -
2/27 10:00pm 315 5 G 7 49° 100% - - 49° 52° 41.1° - - -
2/27 9:50pm 289 7 G 11 50° 100% - - 50° 52° 41.1° - - -
2/27 9:40pm 276 10 G 18 50° 100% - - 50° 52° 41.1° - - -
2/27 9:30pm 233 13 G 27 50° 100% - - 50° 52° 41.1° - - -
2/27 9:20pm 221 12 G 24 50° 100% - - 50° 52° 41.1° - - -
2/27 9:10pm 227 11 G 23 50° 100% - - 50° 52° 41.1° - - -
2/27 9:00pm 237 8 G 13 50° 100% - - 50° 52° 41.1° - - -
2/27 8:50pm 244 9 G 13 50° 100% - - 50° 52° 41.1° - - -
2/27 8:40pm 254 9 G 12 50° 100% - - 50° 52° 41.1° - - -
2/27 8:30pm 222 11 G 23 51° 100% - - 51° 52° 41.1° - - -
2/27 8:20pm 225 9 G 25 51° 100% - - 51° 52° 41.1° - - -
2/27 8:10pm 234 8 G 12 50° 100% - - 50° 52° 41.1° - - -
2/27 8:00pm 242 10 G 19 50° 100% - - 50° 52° 41.1° - - -
2/27 7:50pm 238 12 G 19 50° 100% - - 50° 52° 41.1° - - -
2/27 7:40pm 220 13 G 23 50° 100% - - 50° 52° 41.1° - - -
2/27 7:30pm 217 15 G 29 50° 100% - - 50° 52° 41.1° - - -
2/27 7:20pm 218 15 G 29 50° 100% - - 50° 52° 41.1° - - -
2/27 7:10pm 221 13 G 23 50° 100% - - 50° 52° 41.1° - - -
2/27 7:00pm 243 11 G 21 50° 100% - - 50° 52° 41.1° - - -
2/27 6:50pm 248 10 G 15 50° 100% - - 50° 52° 41.1° - - -
2/27 6:40pm 237 10 G 18 50° 100% - - 50° 52° 41.1° - - -
2/27 6:30pm 224 13 G 26 50° 100% - - 50° 52° 41.1° - - -
2/27 6:20pm 211 16 G 26 50° 100% - - 50° 52° 41.1° - - -
2/27 6:10pm 239 16 G 25 50° 100% - - 50° 52° 41.1° - - -
2/27 6:00pm 243 16 G 24 50° 100% - - 50° 52° 41.1° - - -
2/27 5:50pm 242 13 G 26 50° 100% - - 50° 52° 41.1° - - -
2/27 5:40pm 239 14 G 28 50° 100% - - 50° 52° 41.1° - - -
2/27 5:30pm 240 19 G 33 50° 100% - - 50° 52° 41.1° - - -
2/27 5:20pm 237 13 G 28 51° 100% - - 51° 52° 41.1° - - -
2/27 5:10pm 216 13 G 23 51° 100% - - 51° 52° 41.1° - - -
2/27 5:00pm 209 8 G 16 51° 100% - - 51° 52° 41.1° - - -
2/27 4:50pm 211 10 G 18 51° 100% - - 51° 52° 41.1° - - -
2/27 4:40pm 221 13 G 24 51° 100% - - 51° 52° 41.1° - - -
2/27 4:30pm 218 11 G 21 51° 100% - - 51° 52° 41.1° - - -
2/27 4:20pm 237 10 G 22 51° 100% - - 51° 52° 41.1° - - -
2/27 4:10pm 227 11 G 20 51° 100% - - 51° 52° 41.1° - - -
2/27 4:00pm 220 9 G 18 51° 100% - - 51° 52° 41.1° - - -
2/27 3:50pm 207 13 G 34 51° 100% - - 51° 52° 41.1° - - -
2/27 3:40pm 201 10 G 22 51° 100% - - 51° 52° 41.1° - - -
2/27 3:30pm 189 13 G 22 51° 100% - - 51° 52° 41.1° - - -
2/27 3:20pm 200 13 G 28 51° 100% - - 51° 52° 41.1° - - -
2/27 3:10pm 199 11 G 19 51° 100% - - 51° 52° 41.1° - - -
2/27 3:00pm 199 14 G 31 51° 100% - - 51° 52° 41.1° - - -
2/27 2:50pm 203 10 G 18 51° 100% - - 51° 52° 41.1° - - -
2/27 2:40pm 206 12 G 25 51° 100% - - 51° 52° 41.1° - - -
2/27 2:30pm 215 14 G 25 51° 100% - - 51° 52° 41.1° - - -
2/27 2:20pm 216 17 G 30 51° 100% - - 51° 52° 41.1° - - -
2/27 2:10pm 220 16 G 29 51° 100% - - 51° 52° 41.1° - - -
2/27 2:00pm 215 14 G 26 51° 100% - - 51° 52° 41.1° - - -
2/27 1:50pm 217 16 G 27 51° 100% - - 51° 52° 41.1° - - -
2/27 1:40pm 209 9 G 19 51° 100% - - 51° 52° 41.1° - - -
2/27 1:30pm 203 9 G 16 51° 100% - - 51° 52° 41.1° - - -
2/27 1:20pm 214 11 G 19 51° 100% - - 51° 52° 41.1° - - -
2/27 1:10pm 218 11 G 23 52° 100% - - 52° 52° 41.1° - - -
2/27 1:00pm 214 13 G 24 51° 100% - - 51° 52° 41.1° - - -
2/27 12:50pm 213 11 G 18 51° 100% - - 51° 52° 41.1° - - -
2/27 12:40pm 209 8 G 14 51° 100% - - 51° 52° 41.1° - - -
2/27 12:30pm 206 6 G 14 51° 100% - - 51° 52° 41.1° - - -
2/27 12:20pm 213 8 G 14 51° 100% - - 51° 52° 41.1° - - -
2/27 12:10pm 228 9 G 19 51° 100% - - 51° 52° 41.1° - - -
2/27 12:00pm 224 11 G 20 50° 100% - - 50° 52° 41.1° - - -
2/27 11:50am 224 12 G 19 50° 100% - - 50° 52° 41.1° - - -
2/27 11:40am 207 9 G 18 51° 100% - - 51° 52° 41.1° - - -
2/27 11:30am 184 12 G 21 51° 100% - - 51° 52° 41.1° - - -
2/27 11:20am 185 13 G 22 51° 100% - - 51° 52° 41.1° - - -
2/27 11:10am 183 13 G 24 51° 100% - - 51° 52° 41.1° - - -
2/27 11:00am 192 11 G 24 51° 100% - - 51° 52° 41.1° - - -
2/27 10:50am 207 12 G 19 51° 100% - - 51° 52° 41.1° - - -
2/27 10:40am 207 11 G 19 51° 100% - - 51° 52° 41.1° - - -
2/27 10:30am 212 12 G 22 51° 100% - - 52° 52° 41.1° - - -
2/27 10:20am 207 12 G 24 52° 100% - - 52° 52° 41.1° - - -
2/27 10:10am 210 10 G 17 52° 100% - - 52° 52° 41.1° - - -
2/27 10:00am 212 11 G 20 52° 100% - - 52° 52° 41.1° - - -
2/27 9:50am 215 13 G 24 52° 100% - - 52° 52° 41.1° - - -
2/27 9:40am 217 11 G 20 52° 100% - - 52° 52° 41.1° - - -
2/27 9:30am 217 9 G 16 52° 100% - - 52° 52° 41.1° - - -
2/27 9:20am 210 12 G 22 52° 100% - - 52° 52° 41.1° - - -
2/27 9:10am 217 11 G 17 52° 100% - - 52° 52° 41.1° - - -
2/27 9:00am 211 9 G 20 52° 100% - - 52° 52° 41.1° - - -
2/27 8:50am 210 10 G 18 52° 100% - - 52° 52° 41.1° - - -
2/27 8:40am 216 9 G 17 52° 100% - - 52° 52° 41.1° - - -
2/27 8:30am 208 8 G 15 52° 100% - - 52° 52° 41.1° - - -
2/27 8:20am 216 11 G 21 52° 100% - - 52° 52° 41.1° - - -
2/27 8:10am 215 8 G 15 52° 100% - - 52° 52° 41.1° - - -
2/27 8:00am 220 10 G 18 52° 100% - - 52° 52° 41.1° - - -
2/27 7:50am 225 10 G 17 52° 100% - - 52° 51.9° 41.1° - - -
2/27 7:40am 216 8 G 14 52° 100% - - 52° 51.9° 41.1° - - -
2/27 7:30am 217 7 G 12 51° 100% - - 51° 51.7° 41.1° - - -
2/27 7:20am 212 6 G 13 51° 100% - - 51° 51.5° 41.1° - - -
2/27 7:10am 219 6 G 11 51° 100% - - 51° 51.4° 41.1° - - -
2/27 7:00am 212 4 G 11 51° 100% - - 51° 51.3° 41.1° - - -
2/27 6:50am 198 6 G 10 51° 100% - - 51° 51° 41.1° - - -
2/27 6:40am 197 5 G 10 51° 100% - - 51° 50.9° 41.1° - - -
2/27 6:30am 198 5 G 11 51° 100% - - 51° 50.9° 41.1° - - -
2/27 6:20am 195 7 G 13 51° 100% - - 51° 50.8° 41.1° - - -
2/27 6:10am 185 6 G 11 50° 100% - - 50° 50.5° 41.1° - - -
2/27 6:00am 183 5 G 10 50° 100% - - 50° 50.2° 41.1° - - -
2/27 5:50am 197 5 G 12 50° 100% - - 50° 50° 41.1° - - -
2/27 5:40am 193 7 G 13 50° 100% - - 50° 50° 41.1° - - -
2/27 5:30am 181 6 G 13 50° 100% - - 50° 49.9° 41.1° - - -
2/27 5:20am 166 4 G 11 49° 100% - - 49° 49.6° 41.1° - - -
2/27 5:10am 186 2 G 5 49° 100% - - 49° 49.4° 41.1° - - -
2/27 5:00am 132 4 G 8 49° 100% - - 49° 49° 41.1° - - -
2/27 4:50am 112 5 G 11 48° 100% - - 48° 48.7° 41.1° - - -
2/27 4:40am 96 5 G 9 47° 100% - - 47° 47.6° 41.1° - - -
2/27 4:30am 96 8 G 10 47° 100% - - 47° 47.4° 41.1° - - -
2/27 4:20am 97 9 G 10 47° 100% - - 47° 47.1° 41.1° - - -
2/27 4:10am 97 8 G 10 46° 100% - - 46° 46.7° 41.1° - - -
2/27 4:00am 96 8 G 9 46° 100% - - 46° 46.5° 41.1° - - -
2/27 3:50am 92 6 G 8 46° 100% - - 46° 46.3° 41.1° - - -
2/27 3:40am 91 6 G 7 46° 100% - - 46° 46.1° 41.1° - - -
2/27 3:30am 88 5 G 7 46° 100% - - 46° 46° 41.1° - - -
2/27 3:20am 79 5 G 8 46° 100% - - 46° 46° 41.1° - - -
2/27 3:10am 82 6 G 8 46° 100% - - 46° 45.9° 41.1° - - -
2/27 3:00am 81 5 G 7 46° 100% - - 46° 45.7° 41.1° - - -
2/27 2:50am 79 6 G 7 45° 100% - - 45° 45.5° 41.1° - - -
2/27 2:40am 81 6 G 8 45° 100% - - 45° 45.4° 41.1° - - -
2/27 2:30am 90 7 G 9 45° 100% - - 45° 45.2° 41.1° - - -
2/27 2:20am 90 7 G 9 45° 100% - - 45° 45° 41.1° - - -
2/27 2:10am 89 6 G 8 45° 100% - - 45° 44.9° 41.1° - - -
2/27 2:00am 89 6 G 8 45° 100% - - 45° 44.9° 41.1° - - -
2/27 1:50am 82 6 G 7 45° 100% - - 45° 44.9° 41.1° - - -
2/27 1:40am 80 5 G 7 45° 100% - - 45° 44.9° 41.1° - - -
2/27 1:30am 77 6 G 8 45° 100% - - 45° 44.8° 41.1° - - -
2/27 1:20am 79 7 G 9 44° 100% - - 44° 44.7° 41.1° - - -
2/27 1:10am 78 6 G 9 44° 100% - - 44° 44.3° 41.1° - - -
2/27 1:00am 79 6 G 8 44° 100% - - 44° 44.2° 41.1° - - -
2/27 12:50am 80 6 G 8 44° 99% - - 43° 43.9° 41.1° - - -
2/27 12:40am 91 6 G 7 43° 88% - - 39° 43.3° 41.1° - - -
2/27 12:30am 96 6 G 7 43° 84% - - 38° 43.3° 41.1° - - -
2/27 12:20am 83 6 G 7 42° 85% - - 38° 43.1° 41.1° - - -
2/27 12:10am 84 5 G 7 42° 86% - - 38° 42.6° 41.1° - - -
2/27 12:00am 89 5 G 7 41° 91% - - 39° 52° 40.5° - - -
2/26 11:50pm 92 5 G 6 41° 89% - - 38° 52° 40.5° - - -
2/26 11:40pm 89 5 G 7 41° 87% - - 38° 52° 40.7° - - -
2/26 11:30pm 85 4 G 6 42° 86% - - 38° 52° 40.7° - - -
2/26 11:20pm 76 6 G 8 42° 85% - - 38° 52° 40.7° - - -
2/26 11:10pm 73 5 G 6 43° 84% - - 38° 52° 40.7° - - -
2/26 11:00pm 69 5 G 7 42° 87% - - 39° 52° 40.7° - - -
2/26 10:50pm 76 5 G 6 41° 98% - - 41° 52° 40.7° - - -
2/26 10:40pm 81 5 G 6 41° 97% - - 40° 52° 40.7° - - -
2/26 10:30pm 89 5 G 6 42° 86% - - 38° 52° 41.4° - - -
2/26 10:20pm 70 4 G 6 43° 87% - - 39° 52° 41.6° - - -
2/26 10:10pm 80 4 G 5 42° 98% - - 42° 52° 41.6° - - -
2/26 10:00pm 94 5 G 6 42° 100% - - 42° 52° 41.6° - - -
2/26 9:50pm 90 4 G 6 42° 100% - - 42° 52° 41.9° - - -
2/26 9:40pm 90 4 G 5 43° 99% - - 42° 52° 42.3° - - -
2/26 9:30pm 91 4 G 5 43° 94% - - 42° 52° 42.5° - - -
2/26 9:20pm 83 4 G 6 43° 97% - - 42° 52° 42.5° - - -
2/26 9:10pm 93 4 G 5 43° 100% - - 43° 52° 42.5° - - -
2/26 9:00pm 95 4 G 5 43° 95% - - 42° 52° 42.5° - - -
2/26 8:50pm 76 4 G 5 44° 88% - - 41° 52° 43.7° - - -
2/26 8:40pm 57 3 G 4 44° 89% - - 41° 52° 43.7° - - -
2/26 8:30pm 72 3 G 4 44° 93% - - 42° 52° 43.7° - - -
2/26 8:20pm 93 3 G 4 44° 89% - - 41° 52° 43.7° - - -
2/26 8:10pm 150 2 G 5 45° 93% - - 43° 52° 43.7° - - -
2/26 8:00pm 233 2 G 4 45° 94% - - 43° 52° 43.7° - - -
2/26 7:50pm 194 1 G 3 44° 94% - - 43° 52° 43.7° - - -
2/26 7:40pm 228 2 G 3 45° 91% - - 42° 52° 43.7° - - -
2/26 7:30pm 219 2 G 4 45° 88% - - 41° 52° 43.7° - - -
2/26 7:20pm 224 3 G 5 45° 86% - - 41° 52° 43.7° - - -
2/26 7:10pm 214 3 G 6 45° 84% - - 41° 52° 43.7° - - -
2/26 7:00pm 201 4 G 7 46° 83% - - 41° 52° 43.7° - - -
2/26 6:50pm 214 4 G 6 46° 83% - - 41° 52° 43.7° - - -
2/26 6:40pm 240 6 G 10 46° 82% - - 41° 52° 43.7° - - -
2/26 6:30pm 243 5 G 10 46° 82% - - 41° 52° 43.7° - - -
2/26 6:20pm 248 6 G 10 46° 82% - - 41° 52° 43.7° - - -
2/26 6:10pm 242 8 G 13 47° 80% - - 41° 52° 43.7° - - -
2/26 6:00pm 245 8 G 12 47° 82% - - 42° 52° 43.7° - - -
2/26 5:50pm 239 9 G 14 47° 85% - - 43° 52° 43.7° - - -
2/26 5:40pm 243 9 G 15 48° 85% - - 43° 52° 43.7° - - -
2/26 5:30pm 198 6 G 13 49° 82% - - 43° 52° 43.7° - - -
2/26 5:20pm 212 6 G 12 49° 80% - - 43° 52° 43.7° - - -
2/26 5:10pm 209 6 G 11 49° 79% - - 43° 52° 43.7° - - -
2/26 5:00pm 205 6 G 11 49° 79% - - 43° 52° 43.7° - - -